sensor_id;sensor_type;location;lat;lon;timestamp;P1;durP1;ratioP1;P2;durP2;ratioP2
78079;SDS011;67298;51.322;5.958;2023-06-10T00:00:15;9.9;;;8.2;;
78079;SDS011;67298;51.322;5.958;2023-06-10T00:04:54;10.5;;;8.2;;
78079;SDS011;67298;51.322;5.958;2023-06-10T00:09:33;8.9;;;7.2;;
78079;SDS011;67298;51.322;5.958;2023-06-10T00:14:13;8.7;;;7.2;;
78079;SDS011;67298;51.322;5.958;2023-06-10T00:18:52;9.0;;;7.9;;
78079;SDS011;67298;51.322;5.958;2023-06-10T00:23:32;7.7;;;6.9;;
78079;SDS011;67298;51.322;5.958;2023-06-10T00:28:11;9.6;;;5.3;;
78079;SDS011;67298;51.322;5.958;2023-06-10T00:32:50;9.4;;;7.4;;
78079;SDS011;67298;51.322;5.958;2023-06-10T00:37:30;11.1;;;6.7;;
78079;SDS011;67298;51.322;5.958;2023-06-10T00:42:09;11.7;;;7.7;;
78079;SDS011;67298;51.322;5.958;2023-06-10T00:46:49;10.5;;;7.5;;
78079;SDS011;67298;51.322;5.958;2023-06-10T00:51:28;6.8;;;6.2;;
78079;SDS011;67298;51.322;5.958;2023-06-10T00:56:07;10.1;;;7.4;;
78079;SDS011;67298;51.322;5.958;2023-06-10T01:00:47;7.4;;;6.2;;
78079;SDS011;67298;51.322;5.958;2023-06-10T01:05:26;8.9;;;7.4;;
78079;SDS011;67298;51.322;5.958;2023-06-10T01:10:06;11.2;;;8.2;;
78079;SDS011;67298;51.322;5.958;2023-06-10T01:14:45;14.3;;;7.2;;
78079;SDS011;67298;51.322;5.958;2023-06-10T01:19:25;12.5;;;7.8;;
78079;SDS011;67298;51.322;5.958;2023-06-10T01:24:05;9.4;;;7.0;;
78079;SDS011;67298;51.322;5.958;2023-06-10T01:28:44;5.8;;;5.3;;
78079;SDS011;67298;51.322;5.958;2023-06-10T01:33:23;8.9;;;7.3;;
78079;SDS011;67298;51.322;5.958;2023-06-10T01:38:03;9.8;;;6.8;;
78079;SDS011;67298;51.322;5.958;2023-06-10T01:42:42;11.6;;;7.3;;
78079;SDS011;67298;51.322;5.958;2023-06-10T01:47:21;12.5;;;7.6;;
78079;SDS011;67298;51.322;5.958;2023-06-10T01:52:01;7.2;;;6.4;;
78079;SDS011;67298;51.322;5.958;2023-06-10T01:56:40;10.9;;;7.9;;
78079;SDS011;67298;51.322;5.958;2023-06-10T02:01:20;9.5;;;7.3;;
78079;SDS011;67298;51.322;5.958;2023-06-10T02:05:59;3.8;;;3.4;;
78079;SDS011;67298;51.322;5.958;2023-06-10T02:10:39;8.2;;;6.8;;
78079;SDS011;67298;51.322;5.958;2023-06-10T02:15:18;9.5;;;6.4;;
78079;SDS011;67298;51.322;5.958;2023-06-10T02:19:57;10.4;;;7.1;;
78079;SDS011;67298;51.322;5.958;2023-06-10T02:24:38;9.6;;;7.0;;
78079;SDS011;67298;51.322;5.958;2023-06-10T02:29:18;9.7;;;6.3;;
78079;SDS011;67298;51.322;5.958;2023-06-10T02:33:57;11.0;;;7.2;;
78079;SDS011;67298;51.322;5.958;2023-06-10T02:38:36;10.4;;;7.6;;
78079;SDS011;67298;51.322;5.958;2023-06-10T02:43:16;12.2;;;8.2;;
78079;SDS011;67298;51.322;5.958;2023-06-10T02:47:55;9.4;;;6.6;;
78079;SDS011;67298;51.322;5.958;2023-06-10T02:52:36;10.7;;;6.0;;
78079;SDS011;67298;51.322;5.958;2023-06-10T02:57:15;8.3;;;6.2;;
78079;SDS011;67298;51.322;5.958;2023-06-10T03:01:55;8.7;;;6.5;;
78079;SDS011;67298;51.322;5.958;2023-06-10T03:06:34;12.7;;;5.1;;
78079;SDS011;67298;51.322;5.958;2023-06-10T03:11:16;13.0;;;7.0;;
78079;SDS011;67298;51.322;5.958;2023-06-10T03:16:01;6.9;;;5.7;;
78079;SDS011;67298;51.322;5.958;2023-06-10T03:20:40;8.8;;;6.8;;
78079;SDS011;67298;51.322;5.958;2023-06-10T03:25:19;8.9;;;6.4;;
78079;SDS011;67298;51.322;5.958;2023-06-10T03:30:00;8.2;;;5.7;;
78079;SDS011;67298;51.322;5.958;2023-06-10T03:34:44;9.2;;;6.2;;
78079;SDS011;67298;51.322;5.958;2023-06-10T03:39:23;11.6;;;6.5;;
78079;SDS011;67298;51.322;5.958;2023-06-10T03:44:03;11.3;;;6.7;;
78079;SDS011;67298;51.322;5.958;2023-06-10T03:48:43;8.9;;;5.1;;
78079;SDS011;67298;51.322;5.958;2023-06-10T03:53:22;6.4;;;4.8;;
78079;SDS011;67298;51.322;5.958;2023-06-10T03:58:02;8.9;;;5.6;;
78079;SDS011;67298;51.322;5.958;2023-06-10T04:02:41;11.9;;;5.4;;
78079;SDS011;67298;51.322;5.958;2023-06-10T04:07:20;7.2;;;4.0;;
78079;SDS011;67298;51.322;5.958;2023-06-10T04:12:00;10.6;;;5.7;;
78079;SDS011;67298;51.322;5.958;2023-06-10T04:16:40;7.5;;;5.3;;
78079;SDS011;67298;51.322;5.958;2023-06-10T04:21:19;10.1;;;5.9;;
78079;SDS011;67298;51.322;5.958;2023-06-10T04:25:59;7.6;;;5.2;;
78079;SDS011;67298;51.322;5.958;2023-06-10T04:30:38;10.2;;;4.9;;
78079;SDS011;67298;51.322;5.958;2023-06-10T04:35:17;9.7;;;5.0;;
78079;SDS011;67298;51.322;5.958;2023-06-10T04:39:57;7.5;;;5.1;;
78079;SDS011;67298;51.322;5.958;2023-06-10T04:44:37;2.1;;;1.9;;
78079;SDS011;67298;51.322;5.958;2023-06-10T04:49:16;9.2;;;4.9;;
78079;SDS011;67298;51.322;5.958;2023-06-10T04:53:55;5.9;;;4.1;;
78079;SDS011;67298;51.322;5.958;2023-06-10T04:58:35;8.2;;;5.2;;
78079;SDS011;67298;51.322;5.958;2023-06-10T05:03:14;8.9;;;4.6;;
78079;SDS011;67298;51.322;5.958;2023-06-10T05:07:54;4.3;;;3.9;;
78079;SDS011;67298;51.322;5.958;2023-06-10T05:12:33;8.6;;;4.8;;
78079;SDS011;67298;51.322;5.958;2023-06-10T05:17:12;11.5;;;5.5;;
78079;SDS011;67298;51.322;5.958;2023-06-10T05:21:52;9.9;;;5.7;;
78079;SDS011;67298;51.322;5.958;2023-06-10T05:26:40;8.2;;;5.0;;
78079;SDS011;67298;51.322;5.958;2023-06-10T05:31:19;4.8;;;4.4;;
78079;SDS011;67298;51.322;5.958;2023-06-10T05:35:58;7.1;;;5.2;;
78079;SDS011;67298;51.322;5.958;2023-06-10T05:40:38;10.4;;;5.2;;
78079;SDS011;67298;51.322;5.958;2023-06-10T05:45:17;3.6;;;3.2;;
78079;SDS011;67298;51.322;5.958;2023-06-10T05:49:57;10.0;;;5.5;;
78079;SDS011;67298;51.322;5.958;2023-06-10T05:54:36;5.3;;;4.6;;
78079;SDS011;67298;51.322;5.958;2023-06-10T05:59:16;8.4;;;5.2;;
78079;SDS011;67298;51.322;5.958;2023-06-10T06:03:55;8.6;;;4.8;;
78079;SDS011;67298;51.322;5.958;2023-06-10T06:08:34;8.0;;;3.6;;
78079;SDS011;67298;51.322;5.958;2023-06-10T06:13:14;10.0;;;5.1;;
78079;SDS011;67298;51.322;5.958;2023-06-10T06:17:53;8.9;;;5.1;;
78079;SDS011;67298;51.322;5.958;2023-06-10T06:22:33;10.1;;;5.7;;
78079;SDS011;67298;51.322;5.958;2023-06-10T06:27:12;8.9;;;5.3;;
78079;SDS011;67298;51.322;5.958;2023-06-10T06:31:52;13.5;;;5.4;;
78079;SDS011;67298;51.322;5.958;2023-06-10T06:36:31;10.8;;;5.5;;
78079;SDS011;67298;51.322;5.958;2023-06-10T06:41:10;9.5;;;4.6;;
78079;SDS011;67298;51.322;5.958;2023-06-10T06:45:50;5.0;;;4.5;;
78079;SDS011;67298;51.322;5.958;2023-06-10T06:50:29;7.2;;;5.7;;
78079;SDS011;67298;51.322;5.958;2023-06-10T06:55:08;9.8;;;5.8;;
78079;SDS011;67298;51.322;5.958;2023-06-10T06:59:48;12.1;;;6.6;;
78079;SDS011;67298;51.322;5.958;2023-06-10T07:04:27;10.8;;;5.7;;
78079;SDS011;67298;51.322;5.958;2023-06-10T07:09:07;8.7;;;7.5;;
78079;SDS011;67298;51.322;5.958;2023-06-10T07:13:46;10.1;;;6.0;;
78079;SDS011;67298;51.322;5.958;2023-06-10T07:18:26;7.9;;;5.2;;
78079;SDS011;67298;51.322;5.958;2023-06-10T07:23:05;6.4;;;1.8;;
78079;SDS011;67298;51.322;5.958;2023-06-10T07:27:44;8.2;;;4.7;;
78079;SDS011;67298;51.322;5.958;2023-06-10T07:32:24;10.6;;;4.9;;
78079;SDS011;67298;51.322;5.958;2023-06-10T07:37:03;10.7;;;5.9;;
78079;SDS011;67298;51.322;5.958;2023-06-10T07:41:43;10.6;;;5.1;;
78079;SDS011;67298;51.322;5.958;2023-06-10T07:46:22;8.2;;;5.1;;
78079;SDS011;67298;51.322;5.958;2023-06-10T07:51:01;9.4;;;5.6;;
78079;SDS011;67298;51.322;5.958;2023-06-10T07:55:41;14.5;;;6.3;;
78079;SDS011;67298;51.322;5.958;2023-06-10T08:00:20;12.6;;;6.3;;
78079;SDS011;67298;51.322;5.958;2023-06-10T08:04:59;8.7;;;5.3;;
78079;SDS011;67298;51.322;5.958;2023-06-10T08:09:39;7.4;;;5.6;;
78079;SDS011;67298;51.322;5.958;2023-06-10T08:14:18;11.8;;;5.9;;
78079;SDS011;67298;51.322;5.958;2023-06-10T08:18:58;11.7;;;6.2;;
78079;SDS011;67298;51.322;5.958;2023-06-10T08:23:37;3.7;;;3.3;;
78079;SDS011;67298;51.322;5.958;2023-06-10T08:28:17;9.8;;;5.7;;
78079;SDS011;67298;51.322;5.958;2023-06-10T08:32:56;10.0;;;6.3;;
78079;SDS011;67298;51.322;5.958;2023-06-10T08:37:35;11.5;;;6.9;;
78079;SDS011;67298;51.322;5.958;2023-06-10T08:42:15;9.1;;;5.6;;
78079;SDS011;67298;51.322;5.958;2023-06-10T08:46:54;7.4;;;5.3;;
78079;SDS011;67298;51.322;5.958;2023-06-10T08:51:33;10.8;;;6.9;;
78079;SDS011;67298;51.322;5.958;2023-06-10T08:56:13;11.4;;;6.7;;
78079;SDS011;67298;51.322;5.958;2023-06-10T09:00:52;10.5;;;6.6;;
78079;SDS011;67298;51.322;5.958;2023-06-10T09:05:31;13.8;;;7.3;;
78079;SDS011;67298;51.322;5.958;2023-06-10T09:10:11;17.3;;;6.3;;
78079;SDS011;67298;51.322;5.958;2023-06-10T09:14:50;14.7;;;7.1;;
78079;SDS011;67298;51.322;5.958;2023-06-10T09:19:29;10.8;;;6.4;;
78079;SDS011;67298;51.322;5.958;2023-06-10T09:24:09;8.9;;;6.2;;
78079;SDS011;67298;51.322;5.958;2023-06-10T09:28:48;13.4;;;7.9;;
78079;SDS011;67298;51.322;5.958;2023-06-10T09:33:28;13.3;;;7.9;;
78079;SDS011;67298;51.322;5.958;2023-06-10T09:38:07;13.4;;;8.5;;
78079;SDS011;67298;51.322;5.958;2023-06-10T09:42:47;12.9;;;7.7;;
78079;SDS011;67298;51.322;5.958;2023-06-10T09:47:26;14.9;;;6.5;;
78079;SDS011;67298;51.322;5.958;2023-06-10T09:52:06;13.0;;;8.0;;
78079;SDS011;67298;51.322;5.958;2023-06-10T09:56:45;11.9;;;6.7;;
78079;SDS011;67298;51.322;5.958;2023-06-10T10:01:25;5.1;;;1.5;;
78079;SDS011;67298;51.322;5.958;2023-06-10T10:06:04;14.6;;;7.7;;
78079;SDS011;67298;51.322;5.958;2023-06-10T10:10:43;7.6;;;6.3;;
78079;SDS011;67298;51.322;5.958;2023-06-10T10:15:23;11.3;;;7.2;;
78079;SDS011;67298;51.322;5.958;2023-06-10T10:20:02;10.6;;;7.0;;
78079;SDS011;67298;51.322;5.958;2023-06-10T10:24:42;8.7;;;5.4;;
78079;SDS011;67298;51.322;5.958;2023-06-10T10:29:21;12.5;;;8.3;;
78079;SDS011;67298;51.322;5.958;2023-06-10T10:34:01;11.3;;;7.5;;
78079;SDS011;67298;51.322;5.958;2023-06-10T10:38:40;13.9;;;8.3;;
78079;SDS011;67298;51.322;5.958;2023-06-10T10:43:19;11.2;;;7.9;;
78079;SDS011;67298;51.322;5.958;2023-06-10T10:48:02;13.6;;;7.1;;
78079;SDS011;67298;51.322;5.958;2023-06-10T10:52:43;11.4;;;8.1;;
78079;SDS011;67298;51.322;5.958;2023-06-10T10:57:26;11.7;;;7.3;;
78079;SDS011;67298;51.322;5.958;2023-06-10T11:02:06;8.0;;;6.3;;
78079;SDS011;67298;51.322;5.958;2023-06-10T11:06:46;11.1;;;7.5;;
78079;SDS011;67298;51.322;5.958;2023-06-10T11:11:26;9.8;;;8.3;;
78079;SDS011;67298;51.322;5.958;2023-06-10T11:16:06;11.9;;;8.5;;
78079;SDS011;67298;51.322;5.958;2023-06-10T11:20:45;12.1;;;6.9;;
78079;SDS011;67298;51.322;5.958;2023-06-10T11:25:25;11.4;;;6.2;;
78079;SDS011;67298;51.322;5.958;2023-06-10T11:30:08;14.4;;;7.9;;
78079;SDS011;67298;51.322;5.958;2023-06-10T11:34:56;16.2;;;8.3;;
78079;SDS011;67298;51.322;5.958;2023-06-10T11:39:41;12.5;;;8.4;;
78079;SDS011;67298;51.322;5.958;2023-06-10T11:44:34;12.2;;;8.2;;
78079;SDS011;67298;51.322;5.958;2023-06-10T11:49:13;13.8;;;7.3;;
78079;SDS011;67298;51.322;5.958;2023-06-10T11:53:53;14.1;;;8.2;;
78079;SDS011;67298;51.322;5.958;2023-06-10T11:58:34;8.4;;;7.4;;
78079;SDS011;67298;51.322;5.958;2023-06-10T12:03:14;7.9;;;5.6;;
78079;SDS011;67298;51.322;5.958;2023-06-10T12:07:55;9.5;;;7.5;;
78079;SDS011;67298;51.322;5.958;2023-06-10T12:12:35;9.4;;;7.5;;
78079;SDS011;67298;51.322;5.958;2023-06-10T12:17:14;10.6;;;7.9;;
78079;SDS011;67298;51.322;5.958;2023-06-10T12:21:54;9.0;;;7.1;;
78079;SDS011;67298;51.322;5.958;2023-06-10T12:26:37;9.3;;;5.3;;
78079;SDS011;67298;51.322;5.958;2023-06-10T12:31:18;9.7;;;6.9;;
78079;SDS011;67298;51.322;5.958;2023-06-10T12:36:00;7.3;;;6.6;;
78079;SDS011;67298;51.322;5.958;2023-06-10T12:40:39;2.4;;;2.3;;
78079;SDS011;67298;51.322;5.958;2023-06-10T12:45:19;8.1;;;6.7;;
78079;SDS011;67298;51.322;5.958;2023-06-10T12:50:00;11.8;;;6.2;;
78079;SDS011;67298;51.322;5.958;2023-06-10T12:54:47;9.7;;;6.8;;
78079;SDS011;67298;51.322;5.958;2023-06-10T12:59:27;10.4;;;5.9;;
78079;SDS011;67298;51.322;5.958;2023-06-10T13:04:16;6.1;;;4.8;;
78079;SDS011;67298;51.322;5.958;2023-06-10T13:08:59;6.9;;;6.2;;
78079;SDS011;67298;51.322;5.958;2023-06-10T13:13:58;11.0;;;6.4;;
78079;SDS011;67298;51.322;5.958;2023-06-10T13:18:39;8.8;;;6.3;;
78079;SDS011;67298;51.322;5.958;2023-06-10T13:23:26;7.5;;;6.7;;
78079;SDS011;67298;51.322;5.958;2023-06-10T13:28:06;11.5;;;5.7;;
78079;SDS011;67298;51.322;5.958;2023-06-10T13:32:50;10.3;;;6.5;;
78079;SDS011;67298;51.322;5.958;2023-06-10T13:37:29;7.4;;;6.5;;
78079;SDS011;67298;51.322;5.958;2023-06-10T13:42:09;5.3;;;4.9;;
78079;SDS011;67298;51.322;5.958;2023-06-10T13:46:49;6.4;;;5.8;;
78079;SDS011;67298;51.322;5.958;2023-06-10T13:51:29;8.0;;;6.0;;
78079;SDS011;67298;51.322;5.958;2023-06-10T13:56:09;7.9;;;6.5;;
78079;SDS011;67298;51.322;5.958;2023-06-10T14:00:52;7.7;;;6.2;;
78079;SDS011;67298;51.322;5.958;2023-06-10T14:05:31;10.2;;;6.1;;
78079;SDS011;67298;51.322;5.958;2023-06-10T14:10:11;8.0;;;6.7;;
78079;SDS011;67298;51.322;5.958;2023-06-10T14:14:50;6.4;;;5.9;;
78079;SDS011;67298;51.322;5.958;2023-06-10T14:19:30;7.4;;;6.8;;
78079;SDS011;67298;51.322;5.958;2023-06-10T14:24:11;7.1;;;6.0;;
78079;SDS011;67298;51.322;5.958;2023-06-10T14:28:50;9.0;;;5.6;;
78079;SDS011;67298;51.322;5.958;2023-06-10T14:33:30;6.8;;;5.7;;
78079;SDS011;67298;51.322;5.958;2023-06-10T14:38:09;6.2;;;5.7;;
78079;SDS011;67298;51.322;5.958;2023-06-10T14:42:54;6.7;;;3.8;;
78079;SDS011;67298;51.322;5.958;2023-06-10T14:47:34;6.9;;;5.8;;
78079;SDS011;67298;51.322;5.958;2023-06-10T14:52:13;27.4;;;6.5;;
78079;SDS011;67298;51.322;5.958;2023-06-10T14:56:52;31.0;;;7.4;;
78079;SDS011;67298;51.322;5.958;2023-06-10T15:01:32;6.4;;;5.8;;
78079;SDS011;67298;51.322;5.958;2023-06-10T15:06:11;6.3;;;4.8;;
78079;SDS011;67298;51.322;5.958;2023-06-10T15:10:51;6.4;;;5.8;;
78079;SDS011;67298;51.322;5.958;2023-06-10T15:15:30;6.3;;;5.7;;
78079;SDS011;67298;51.322;5.958;2023-06-10T15:20:09;1.2;;;1.2;;
78079;SDS011;67298;51.322;5.958;2023-06-10T15:24:49;6.7;;;6.1;;
78079;SDS011;67298;51.322;5.958;2023-06-10T15:29:29;6.3;;;5.6;;
78079;SDS011;67298;51.322;5.958;2023-06-10T15:34:08;6.8;;;6.1;;
78079;SDS011;67298;51.322;5.958;2023-06-10T15:38:48;8.2;;;5.5;;
78079;SDS011;67298;51.322;5.958;2023-06-10T15:43:27;4.3;;;3.9;;
78079;SDS011;67298;51.322;5.958;2023-06-10T15:48:06;6.1;;;4.9;;
78079;SDS011;67298;51.322;5.958;2023-06-10T15:52:46;5.6;;;4.8;;
78079;SDS011;67298;51.322;5.958;2023-06-10T15:57:25;5.8;;;5.2;;
78079;SDS011;67298;51.322;5.958;2023-06-10T16:02:05;7.0;;;5.5;;
78079;SDS011;67298;51.322;5.958;2023-06-10T16:06:44;4.5;;;4.1;;
78079;SDS011;67298;51.322;5.958;2023-06-10T16:11:23;6.1;;;4.8;;
78079;SDS011;67298;51.322;5.958;2023-06-10T16:16:03;5.5;;;5.0;;
78079;SDS011;67298;51.322;5.958;2023-06-10T16:20:43;3.8;;;2.7;;
78079;SDS011;67298;51.322;5.958;2023-06-10T16:25:22;6.7;;;4.9;;
78079;SDS011;67298;51.322;5.958;2023-06-10T16:30:01;4.8;;;4.3;;
78079;SDS011;67298;51.322;5.958;2023-06-10T16:34:41;10.0;;;5.2;;
78079;SDS011;67298;51.322;5.958;2023-06-10T16:39:20;6.2;;;5.0;;
78079;SDS011;67298;51.322;5.958;2023-06-10T16:44:00;5.4;;;4.9;;
78079;SDS011;67298;51.322;5.958;2023-06-10T16:48:39;7.2;;;5.4;;
78079;SDS011;67298;51.322;5.958;2023-06-10T16:53:18;6.1;;;5.3;;
78079;SDS011;67298;51.322;5.958;2023-06-10T16:57:58;6.6;;;5.5;;
78079;SDS011;67298;51.322;5.958;2023-06-10T17:02:37;5.9;;;5.4;;
78079;SDS011;67298;51.322;5.958;2023-06-10T17:07:16;12.7;;;4.8;;
78079;SDS011;67298;51.322;5.958;2023-06-10T17:11:56;8.3;;;5.3;;
78079;SDS011;67298;51.322;5.958;2023-06-10T17:16:35;6.1;;;5.3;;
78079;SDS011;67298;51.322;5.958;2023-06-10T17:21:15;4.4;;;4.1;;
78079;SDS011;67298;51.322;5.958;2023-06-10T17:25:54;5.7;;;5.0;;
78079;SDS011;67298;51.322;5.958;2023-06-10T17:30:34;7.3;;;5.4;;
78079;SDS011;67298;51.322;5.958;2023-06-10T17:35:13;8.9;;;5.7;;
78079;SDS011;67298;51.322;5.958;2023-06-10T17:39:52;7.6;;;5.3;;
78079;SDS011;67298;51.322;5.958;2023-06-10T17:44:32;4.8;;;4.3;;
78079;SDS011;67298;51.322;5.958;2023-06-10T17:49:11;8.0;;;5.3;;
78079;SDS011;67298;51.322;5.958;2023-06-10T17:53:51;7.2;;;4.4;;
78079;SDS011;67298;51.322;5.958;2023-06-10T17:58:30;2.6;;;2.5;;
78079;SDS011;67298;51.322;5.958;2023-06-10T18:03:09;4.6;;;4.2;;
78079;SDS011;67298;51.322;5.958;2023-06-10T18:07:49;4.8;;;4.4;;
78079;SDS011;67298;51.322;5.958;2023-06-10T18:12:28;8.2;;;5.0;;
78079;SDS011;67298;51.322;5.958;2023-06-10T18:17:07;7.0;;;5.5;;
78079;SDS011;67298;51.322;5.958;2023-06-10T18:21:47;4.9;;;4.5;;
78079;SDS011;67298;51.322;5.958;2023-06-10T18:26:26;5.7;;;5.2;;
78079;SDS011;67298;51.322;5.958;2023-06-10T18:31:06;5.3;;;4.9;;
78079;SDS011;67298;51.322;5.958;2023-06-10T18:35:45;6.0;;;5.4;;
78079;SDS011;67298;51.322;5.958;2023-06-10T18:40:24;5.1;;;4.0;;
78079;SDS011;67298;51.322;5.958;2023-06-10T18:45:04;5.3;;;4.8;;
78079;SDS011;67298;51.322;5.958;2023-06-10T18:49:43;5.6;;;5.0;;
78079;SDS011;67298;51.322;5.958;2023-06-10T18:54:23;4.6;;;4.2;;
78079;SDS011;67298;51.322;5.958;2023-06-10T18:59:02;3.3;;;3.1;;
78079;SDS011;67298;51.322;5.958;2023-06-10T19:03:42;5.1;;;4.6;;
78079;SDS011;67298;51.322;5.958;2023-06-10T19:08:21;4.7;;;4.3;;
78079;SDS011;67298;51.322;5.958;2023-06-10T19:13:00;5.2;;;4.8;;
78079;SDS011;67298;51.322;5.958;2023-06-10T19:17:40;5.6;;;4.3;;
78079;SDS011;67298;51.322;5.958;2023-06-10T19:22:19;5.6;;;4.9;;
78079;SDS011;67298;51.322;5.958;2023-06-10T19:26:59;7.7;;;4.9;;
78079;SDS011;67298;51.322;5.958;2023-06-10T19:31:38;4.7;;;4.3;;
78079;SDS011;67298;51.322;5.958;2023-06-10T19:36:17;4.9;;;4.5;;
78079;SDS011;67298;51.322;5.958;2023-06-10T19:40:57;5.4;;;4.7;;
78079;SDS011;67298;51.322;5.958;2023-06-10T19:45:37;5.5;;;5.0;;
78079;SDS011;67298;51.322;5.958;2023-06-10T19:50:17;5.6;;;5.1;;
78079;SDS011;67298;51.322;5.958;2023-06-10T19:54:56;5.1;;;4.7;;
78079;SDS011;67298;51.322;5.958;2023-06-10T19:59:36;5.4;;;4.0;;
78079;SDS011;67298;51.322;5.958;2023-06-10T20:04:15;7.0;;;4.6;;
78079;SDS011;67298;51.322;5.958;2023-06-10T20:08:54;5.2;;;4.7;;
78079;SDS011;67298;51.322;5.958;2023-06-10T20:13:34;5.8;;;4.9;;
78079;SDS011;67298;51.322;5.958;2023-06-10T20:18:13;7.8;;;4.6;;
78079;SDS011;67298;51.322;5.958;2023-06-10T20:22:52;4.2;;;3.8;;
78079;SDS011;67298;51.322;5.958;2023-06-10T20:27:32;5.1;;;4.6;;
78079;SDS011;67298;51.322;5.958;2023-06-10T20:32:11;6.2;;;4.5;;
78079;SDS011;67298;51.322;5.958;2023-06-10T20:36:50;3.2;;;3.0;;
78079;SDS011;67298;51.322;5.958;2023-06-10T20:41:30;7.9;;;4.7;;
78079;SDS011;67298;51.322;5.958;2023-06-10T20:46:09;5.1;;;4.6;;
78079;SDS011;67298;51.322;5.958;2023-06-10T20:50:49;5.2;;;4.8;;
78079;SDS011;67298;51.322;5.958;2023-06-10T20:55:28;5.0;;;3.8;;
78079;SDS011;67298;51.322;5.958;2023-06-10T21:00:07;9.0;;;3.5;;
78079;SDS011;67298;51.322;5.958;2023-06-10T21:04:47;7.3;;;4.2;;
78079;SDS011;67298;51.322;5.958;2023-06-10T21:09:27;6.8;;;5.2;;
78079;SDS011;67298;51.322;5.958;2023-06-10T21:14:06;6.1;;;5.3;;
78079;SDS011;67298;51.322;5.958;2023-06-10T21:18:45;6.7;;;4.5;;
78079;SDS011;67298;51.322;5.958;2023-06-10T21:23:25;4.5;;;4.2;;
78079;SDS011;67298;51.322;5.958;2023-06-10T21:28:04;5.7;;;4.2;;
78079;SDS011;67298;51.322;5.958;2023-06-10T21:32:44;7.1;;;4.5;;
78079;SDS011;67298;51.322;5.958;2023-06-10T21:37:23;6.5;;;4.2;;
78079;SDS011;67298;51.322;5.958;2023-06-10T21:42:02;5.5;;;4.4;;
78079;SDS011;67298;51.322;5.958;2023-06-10T21:46:42;4.9;;;4.5;;
78079;SDS011;67298;51.322;5.958;2023-06-10T21:51:23;5.0;;;4.5;;
78079;SDS011;67298;51.322;5.958;2023-06-10T21:56:02;5.6;;;4.1;;
78079;SDS011;67298;51.322;5.958;2023-06-10T22:00:42;4.3;;;4.0;;
78079;SDS011;67298;51.322;5.958;2023-06-10T22:05:21;5.4;;;4.4;;
78079;SDS011;67298;51.322;5.958;2023-06-10T22:10:00;5.5;;;4.2;;
78079;SDS011;67298;51.322;5.958;2023-06-10T22:14:40;4.6;;;4.0;;
78079;SDS011;67298;51.322;5.958;2023-06-10T22:19:20;5.4;;;4.5;;
78079;SDS011;67298;51.322;5.958;2023-06-10T22:23:59;7.1;;;4.0;;
78079;SDS011;67298;51.322;5.958;2023-06-10T22:28:39;5.1;;;4.1;;
78079;SDS011;67298;51.322;5.958;2023-06-10T22:33:19;5.3;;;4.3;;
78079;SDS011;67298;51.322;5.958;2023-06-10T22:37:58;3.4;;;3.1;;
78079;SDS011;67298;51.322;5.958;2023-06-10T22:42:38;4.8;;;4.2;;
78079;SDS011;67298;51.322;5.958;2023-06-10T22:47:17;5.9;;;4.2;;
78079;SDS011;67298;51.322;5.958;2023-06-10T22:51:56;5.7;;;4.4;;
78079;SDS011;67298;51.322;5.958;2023-06-10T22:56:36;4.3;;;3.9;;
78079;SDS011;67298;51.322;5.958;2023-06-10T23:01:15;5.2;;;3.6;;
78079;SDS011;67298;51.322;5.958;2023-06-10T23:05:55;4.7;;;4.3;;
78079;SDS011;67298;51.322;5.958;2023-06-10T23:10:34;5.5;;;4.7;;
78079;SDS011;67298;51.322;5.958;2023-06-10T23:15:14;2.2;;;2.1;;
78079;SDS011;67298;51.322;5.958;2023-06-10T23:19:53;4.4;;;4.0;;
78079;SDS011;67298;51.322;5.958;2023-06-10T23:24:32;5.9;;;4.9;;
78079;SDS011;67298;51.322;5.958;2023-06-10T23:29:12;4.6;;;4.2;;
78079;SDS011;67298;51.322;5.958;2023-06-10T23:33:51;5.6;;;4.0;;
78079;SDS011;67298;51.322;5.958;2023-06-10T23:38:30;3.6;;;2.8;;
78079;SDS011;67298;51.322;5.958;2023-06-10T23:43:10;5.4;;;4.2;;
78079;SDS011;67298;51.322;5.958;2023-06-10T23:47:49;4.1;;;3.7;;
78079;SDS011;67298;51.322;5.958;2023-06-10T23:52:29;4.5;;;4.1;;
78079;SDS011;67298;51.322;5.958;2023-06-10T23:57:08;4.9;;;3.7;;
